createdAt,value
2022-09-30T00:01:34.899Z,16.02
2022-09-30T00:04:02.205Z,14.88
2022-09-30T00:06:30.218Z,17.75
2022-09-30T00:08:58.149Z,14.55
2022-09-30T00:11:31.160Z,16.77
2022-09-30T00:13:58.298Z,19.55
2022-09-30T00:16:29.278Z,15.15
2022-09-30T00:18:56.922Z,14.00
2022-09-30T00:21:25.115Z,15.30
2022-09-30T00:23:51.742Z,16.48
2022-09-30T00:26:21.329Z,13.65
2022-09-30T00:28:55.933Z,17.27
2022-09-30T00:31:24.704Z,15.88
2022-09-30T00:34:11.159Z,15.20
2022-09-30T00:36:52.433Z,17.25
2022-09-30T00:39:24.587Z,13.73
2022-09-30T00:41:55.450Z,18.52
2022-09-30T00:44:51.140Z,16.67
2022-09-30T00:47:46.191Z,13.20
2022-09-30T00:50:27.008Z,13.25
2022-09-30T00:53:17.857Z,12.27
2022-09-30T00:55:54.686Z,14.40
2022-09-30T00:58:39.659Z,28.50
2022-09-30T01:01:07.301Z,15.38
2022-09-30T01:03:38.270Z,19.33
2022-09-30T01:06:05.496Z,20.77
2022-09-30T01:08:35.546Z,16.08
2022-09-30T01:11:07.227Z,14.43
2022-09-30T01:13:36.440Z,17.63
2022-09-30T01:16:18.023Z,15.98
2022-09-30T01:18:56.461Z,12.68
2022-09-30T01:21:25.923Z,16.15
2022-09-30T01:24:29.589Z,18.05
2022-09-30T01:27:15.963Z,20.47
2022-09-30T01:29:45.358Z,26.90
2022-09-30T01:32:23.934Z,24.73
2022-09-30T01:34:50.360Z,32.10
2022-09-30T01:37:24.165Z,20.00
2022-09-30T01:40:10.404Z,15.60
2022-09-30T01:42:49.617Z,17.45
2022-09-30T01:45:22.293Z,41.28
2022-09-30T01:47:56.737Z,17.77
2022-09-30T01:50:40.866Z,69.80
2022-09-30T01:53:43.628Z,18.27
2022-09-30T01:56:20.821Z,46.40
2022-09-30T01:58:57.825Z,20.08
2022-09-30T02:01:32.312Z,18.35
2022-09-30T02:04:05.582Z,17.27
2022-09-30T02:06:37.973Z,23.52
2022-09-30T02:09:36.439Z,21.20
2022-09-30T02:12:06.761Z,24.15
2022-09-30T02:14:45.308Z,23.50
2022-09-30T02:17:23.421Z,17.23
2022-09-30T02:19:59.629Z,16.35
2022-09-30T02:22:37.418Z,32.40
2022-09-30T02:25:06.457Z,25.23
2022-09-30T02:27:45.171Z,25.48
2022-09-30T02:30:13.179Z,21.85
2022-09-30T02:32:45.535Z,65.15
2022-09-30T02:35:45.127Z,21.88
2022-09-30T02:38:28.701Z,33.50
2022-09-30T02:41:02.346Z,34.05
2022-09-30T02:46:19.020Z,38.13
2022-09-30T02:49:27.303Z,31.30
2022-09-30T02:52:05.577Z,24.77
2022-09-30T02:55:05.824Z,21.05
2022-09-30T02:57:41.546Z,25.52
2022-09-30T03:00:12.719Z,25.02
2022-09-30T03:02:42.686Z,21.27
2022-09-30T03:05:10.498Z,22.30
2022-09-30T03:07:38.158Z,22.33
2022-09-30T03:10:18.006Z,25.60
2022-09-30T03:12:56.874Z,22.48
2022-09-30T03:15:55.628Z,30.38
2022-09-30T03:18:45.599Z,21.77
2022-09-30T03:21:51.194Z,25.73
2022-09-30T03:24:44.173Z,27.63
2022-09-30T03:27:48.807Z,34.47
2022-09-30T03:33:17.578Z,24.33
2022-09-30T03:36:01.757Z,29.02
2022-09-30T03:39:06.039Z,30.83
2022-09-30T03:41:42.942Z,35.97
2022-09-30T03:44:19.418Z,25.65
2022-09-30T03:46:57.362Z,27.13
2022-09-30T03:49:28.226Z,24.30
2022-09-30T03:51:58.546Z,45.63
2022-09-30T03:54:25.493Z,26.10
2022-09-30T03:56:51.985Z,23.80
2022-09-30T03:59:25.603Z,30.17
2022-09-30T04:01:52.631Z,33.17
2022-09-30T04:04:19.330Z,24.42
2022-09-30T04:06:46.479Z,28.42
2022-09-30T04:09:13.105Z,27.75
2022-09-30T04:11:42.979Z,25.25
2022-09-30T04:14:09.707Z,28.08
2022-09-30T04:16:36.276Z,23.70
2022-09-30T04:19:03.229Z,25.25
2022-09-30T04:21:29.881Z,21.77
2022-09-30T04:23:56.802Z,28.85
2022-09-30T04:26:23.506Z,25.52
2022-09-30T04:28:50.420Z,19.85
2022-09-30T04:31:17.801Z,24.88
2022-09-30T04:33:45.414Z,23.98
2022-09-30T04:36:11.914Z,27.25
2022-09-30T04:38:38.455Z,28.95
2022-09-30T04:41:06.639Z,27.00
2022-09-30T04:43:34.325Z,26.30
2022-09-30T04:46:01.517Z,29.13
2022-09-30T04:48:31.319Z,33.70
2022-09-30T04:51:00.022Z,26.88
2022-09-30T04:53:26.639Z,28.55
2022-09-30T04:55:59.595Z,32.92
2022-09-30T04:58:26.570Z,29.08
2022-09-30T05:01:00.480Z,42.13
2022-09-30T05:03:27.093Z,36.80
2022-09-30T05:05:53.571Z,36.30
2022-09-30T05:08:20.621Z,75.28
2022-09-30T05:10:57.341Z,99.32
2022-09-30T05:13:30.957Z,31.35
2022-09-30T05:18:25.964Z,73.57
2022-09-30T05:20:53.656Z,80.28
2022-09-30T05:23:21.029Z,32.53
2022-09-30T05:25:47.995Z,66.07
2022-09-30T05:28:14.989Z,37.45
2022-09-30T05:30:43.514Z,23.23
2022-09-30T05:33:11.156Z,25.55
2022-09-30T05:35:39.439Z,77.82
2022-09-30T05:38:05.963Z,68.13
2022-09-30T05:40:32.715Z,31.92
2022-09-30T05:43:00.269Z,156.23
2022-09-30T05:45:27.042Z,121.97
2022-09-30T05:47:54.295Z,232.55
2022-09-30T05:50:22.055Z,77.88
2022-09-30T05:52:49.514Z,48.65
2022-09-30T05:55:17.351Z,27.92
2022-09-30T05:57:46.162Z,36.00
2022-09-30T06:00:12.684Z,152.07
2022-09-30T06:02:39.407Z,289.00
2022-09-30T06:05:07.003Z,43.72
2022-09-30T06:07:34.766Z,255.48
2022-09-30T06:10:02.381Z,49.30
2022-09-30T06:12:28.882Z,246.82
2022-09-30T06:14:55.974Z,362.13
2022-09-30T06:17:23.111Z,280.98
2022-09-30T06:19:49.858Z,249.38
2022-09-30T06:22:17.552Z,63.30
2022-09-30T06:24:50.365Z,527.25
2022-09-30T06:27:19.341Z,611.90
2022-09-30T06:29:45.841Z,103.03
2022-09-30T06:32:13.139Z,409.42
2022-09-30T06:34:39.655Z,243.10
2022-09-30T06:37:07.114Z,240.15
2022-09-30T06:39:33.581Z,196.23
2022-09-30T06:41:59.986Z,239.30
2022-09-30T06:44:26.441Z,133.80
2022-09-30T06:46:54.366Z,419.33
2022-09-30T06:49:21.515Z,117.70
2022-09-30T06:51:48.064Z,127.68
2022-09-30T06:54:14.793Z,101.63
2022-09-30T06:56:41.871Z,279.00
2022-09-30T06:59:08.403Z,262.15
2022-09-30T07:01:34.998Z,96.20
2022-09-30T07:04:08.003Z,104.40
2022-09-30T07:06:34.721Z,307.90
2022-09-30T07:09:01.245Z,352.27
2022-09-30T07:11:27.752Z,183.50
2022-09-30T07:13:54.270Z,223.75
2022-09-30T07:16:21.423Z,186.38
2022-09-30T07:18:48.123Z,130.18
2022-09-30T07:21:16.238Z,128.20
2022-09-30T07:23:49.378Z,113.63
2022-09-30T07:26:17.847Z,66.43
2022-09-30T07:28:45.186Z,65.03
2022-09-30T07:31:34.039Z,114.22
2022-09-30T07:34:02.716Z,93.60
2022-09-30T07:36:33.434Z,43.22
2022-09-30T07:39:06.550Z,132.18
2022-09-30T07:41:35.991Z,70.20
2022-09-30T07:44:03.949Z,109.88
2022-09-30T07:46:33.851Z,255.93
2022-09-30T07:49:05.818Z,116.82
2022-09-30T07:51:38.151Z,217.70
2022-09-30T07:54:11.691Z,151.82
2022-09-30T07:59:31.678Z,210.95
2022-09-30T08:01:58.469Z,95.53
2022-09-30T08:04:26.803Z,118.10
2022-09-30T08:07:02.258Z,47.38
2022-09-30T08:09:30.219Z,56.65
2022-09-30T08:11:57.279Z,44.85
2022-09-30T08:14:26.492Z,33.95
2022-09-30T08:16:53.993Z,32.13
2022-09-30T08:19:23.029Z,29.83
2022-09-30T08:21:51.265Z,29.35
2022-09-30T08:24:17.916Z,26.90
2022-09-30T08:26:44.532Z,23.58
2022-09-30T08:29:20.101Z,25.50
2022-09-30T08:31:53.978Z,23.75
2022-09-30T08:34:21.211Z,27.27
2022-09-30T08:36:48.474Z,26.20
2022-09-30T08:39:15.098Z,25.77
2022-09-30T08:42:19.140Z,23.70
2022-09-30T08:44:52.406Z,26.35
2022-09-30T08:47:42.328Z,25.25
2022-09-30T08:50:19.304Z,21.88
2022-09-30T08:52:49.667Z,21.13
2022-09-30T08:55:22.867Z,21.85
2022-09-30T08:57:51.202Z,21.88
2022-09-30T09:00:19.073Z,23.60
2022-09-30T09:02:55.787Z,22.98
2022-09-30T09:05:54.339Z,23.90
2022-09-30T09:08:23.901Z,24.35
2022-09-30T09:11:25.263Z,27.80
2022-09-30T09:14:01.422Z,26.85
2022-09-30T09:16:51.602Z,26.30
2022-09-30T09:19:25.264Z,24.30
2022-09-30T09:24:30.499Z,24.85
2022-09-30T09:26:59.027Z,27.38
2022-09-30T09:29:54.977Z,26.77
2022-09-30T09:32:21.538Z,28.48
2022-09-30T09:34:55.581Z,25.83
2022-09-30T09:38:02.616Z,26.63
2022-09-30T09:40:43.044Z,25.42
2022-09-30T09:43:30.551Z,26.45
2022-09-30T09:46:08.994Z,27.02
2022-09-30T09:48:36.015Z,27.23
2022-09-30T09:51:14.357Z,25.73
2022-09-30T09:53:53.137Z,24.42
2022-09-30T09:56:31.172Z,23.50
2022-09-30T09:59:12.495Z,22.38
2022-09-30T10:01:51.122Z,22.25
2022-09-30T10:04:33.316Z,23.52
2022-09-30T10:07:02.325Z,22.77
2022-09-30T10:09:35.051Z,27.88
2022-09-30T10:12:07.292Z,28.73
2022-09-30T10:14:46.139Z,30.95
2022-09-30T10:17:29.473Z,27.70
2022-09-30T10:20:17.510Z,31.95
2022-09-30T10:22:44.128Z,32.60
2022-09-30T10:25:23.058Z,30.60
2022-09-30T10:28:00.021Z,31.08
2022-09-30T10:30:46.872Z,30.05
2022-09-30T10:33:34.805Z,33.38
2022-09-30T10:36:05.970Z,31.88
2022-09-30T10:38:34.675Z,29.20
2022-09-30T10:41:02.861Z,25.40
2022-09-30T10:43:33.979Z,23.20
2022-09-30T10:46:24.640Z,22.40
2022-09-30T10:48:51.537Z,16.80
2022-09-30T10:51:24.875Z,16.73
2022-09-30T10:53:51.625Z,12.25
2022-09-30T10:56:46.191Z,11.65
2022-09-30T10:59:34.679Z,12.82
2022-09-30T11:02:16.032Z,13.60
2022-09-30T11:04:50.218Z,14.15
2022-09-30T11:07:31.397Z,15.00
2022-09-30T11:10:21.135Z,14.15
2022-09-30T11:13:00.722Z,13.13
2022-09-30T11:16:01.166Z,14.07
2022-09-30T11:18:52.823Z,13.27
2022-09-30T11:21:29.545Z,13.43
2022-09-30T11:24:23.296Z,12.20
2022-09-30T11:27:12.662Z,13.98
2022-09-30T11:29:48.187Z,13.48
2022-09-30T11:32:36.394Z,12.68
2022-09-30T11:35:05.888Z,12.75
2022-09-30T11:37:51.160Z,15.52
2022-09-30T11:40:37.933Z,11.68
2022-09-30T11:43:26.352Z,11.25
2022-09-30T11:46:30.849Z,11.48
2022-09-30T11:51:54.802Z,10.63
2022-09-30T11:55:00.351Z,9.68
2022-09-30T11:57:38.547Z,9.02
2022-09-30T12:00:19.178Z,10.60
2022-09-30T12:02:53.177Z,9.65
2022-09-30T12:05:25.508Z,8.80
2022-09-30T12:07:58.588Z,8.07
2022-09-30T12:10:33.972Z,7.93
2022-09-30T12:13:06.862Z,8.02
2022-09-30T12:15:35.500Z,7.93
2022-09-30T12:18:32.634Z,6.65
2022-09-30T12:21:04.231Z,6.22
2022-09-30T12:23:39.981Z,6.32
2022-09-30T12:26:07.183Z,5.80
2022-09-30T12:29:11.130Z,7.05
2022-09-30T12:31:46.506Z,7.60
2022-09-30T12:34:35.858Z,7.85
2022-09-30T12:37:14.701Z,7.13
2022-09-30T12:39:57.799Z,7.07
2022-09-30T12:42:49.314Z,6.82
2022-09-30T12:45:24.360Z,6.20
2022-09-30T12:47:57.383Z,6.20
2022-09-30T12:50:30.007Z,6.53
2022-09-30T12:52:57.768Z,6.43
2022-09-30T12:55:31.292Z,6.20
2022-09-30T13:00:34.851Z,7.28
2022-09-30T13:03:08.192Z,7.07
2022-09-30T13:05:34.689Z,6.30
2022-09-30T13:08:04.480Z,6.53
2022-09-30T13:10:34.716Z,5.70
2022-09-30T13:13:10.289Z,6.45
2022-09-30T13:15:39.900Z,6.20
2022-09-30T13:18:23.333Z,6.70
2022-09-30T13:20:56.426Z,5.57
2022-09-30T13:23:35.983Z,6.07
2022-09-30T13:26:04.704Z,5.50
2022-09-30T13:28:38.263Z,5.13
2022-09-30T13:33:45.860Z,5.28
2022-09-30T13:36:56.528Z,6.20
2022-09-30T13:39:23.070Z,6.32
2022-09-30T13:42:03.680Z,5.53
2022-09-30T13:45:07.985Z,6.30
2022-09-30T13:47:45.366Z,6.75
2022-09-30T13:50:23.699Z,5.57
2022-09-30T13:52:57.815Z,5.20
2022-09-30T13:55:37.043Z,5.45
2022-09-30T13:58:22.520Z,4.90
2022-09-30T14:00:57.086Z,6.22
2022-09-30T14:03:41.854Z,5.60
2022-09-30T14:06:20.319Z,5.78
2022-09-30T14:09:13.463Z,6.05
2022-09-30T14:11:59.230Z,5.75
2022-09-30T14:14:31.121Z,4.93
2022-09-30T14:17:35.509Z,5.35
2022-09-30T14:20:24.217Z,5.72
2022-09-30T14:22:51.033Z,5.63
2022-09-30T14:25:23.463Z,6.22
2022-09-30T14:28:00.416Z,5.65
2022-09-30T14:30:28.028Z,5.13
2022-09-30T14:32:56.770Z,5.97
2022-09-30T14:35:28.360Z,5.43
2022-09-30T14:38:00.159Z,5.97
2022-09-30T14:40:32.289Z,5.90
2022-09-30T14:43:02.759Z,6.25
2022-09-30T14:45:42.971Z,6.15
2022-09-30T14:48:38.705Z,7.05
2022-09-30T14:51:10.383Z,6.63
2022-09-30T14:53:40.890Z,6.53
2022-09-30T14:56:30.583Z,5.85
2022-09-30T14:58:59.328Z,6.85
2022-09-30T15:01:31.298Z,7.00
2022-09-30T15:04:07.953Z,6.85
2022-09-30T15:06:38.195Z,7.20
2022-09-30T15:09:07.824Z,6.70
2022-09-30T15:11:39.607Z,6.65
2022-09-30T15:14:13.961Z,6.15
2022-09-30T15:16:49.441Z,7.25
2022-09-30T15:19:24.625Z,7.78
2022-09-30T15:21:53.274Z,8.35
2022-09-30T15:24:22.459Z,7.25
2022-09-30T15:26:50.856Z,6.95
2022-09-30T15:29:17.668Z,6.70
2022-09-30T15:31:49.234Z,6.43
2022-09-30T15:34:21.909Z,6.00
2022-09-30T15:37:29.814Z,5.72
2022-09-30T15:40:14.611Z,5.90
2022-09-30T15:42:46.277Z,9.55
2022-09-30T15:45:35.284Z,9.80
2022-09-30T15:48:27.495Z,9.63
2022-09-30T15:50:56.346Z,9.60
2022-09-30T15:53:25.628Z,10.27
2022-09-30T15:55:55.594Z,10.52
2022-09-30T15:58:39.641Z,11.90
2022-09-30T16:03:55.830Z,11.48
2022-09-30T16:06:35.373Z,12.23
2022-09-30T16:09:06.722Z,10.85
2022-09-30T16:11:36.768Z,17.15
2022-09-30T16:14:07.323Z,12.63
2022-09-30T16:16:36.172Z,13.27
2022-09-30T16:19:04.127Z,12.48
2022-09-30T16:21:47.218Z,14.82
2022-09-30T16:24:23.016Z,15.00
2022-09-30T16:26:50.368Z,16.92
2022-09-30T16:29:18.084Z,14.90
2022-09-30T16:31:46.937Z,18.65
2022-09-30T16:34:21.056Z,24.70
2022-09-30T16:36:47.930Z,20.95
2022-09-30T16:39:16.690Z,21.35
2022-09-30T16:41:43.763Z,24.67
2022-09-30T16:44:10.288Z,20.98
2022-09-30T16:46:37.244Z,24.65
2022-09-30T16:49:15.813Z,22.02
2022-09-30T16:51:42.989Z,24.67
2022-09-30T16:54:10.695Z,20.30
2022-09-30T16:56:37.639Z,24.88
2022-09-30T16:59:04.639Z,20.70
2022-09-30T17:01:31.090Z,23.50
2022-09-30T17:03:58.274Z,21.73
2022-09-30T17:06:28.037Z,19.10
2022-09-30T17:08:54.785Z,23.15
2022-09-30T17:11:27.089Z,18.85
2022-09-30T17:13:53.659Z,20.67
2022-09-30T17:16:20.222Z,19.08
2022-09-30T17:18:46.746Z,19.83
2022-09-30T17:21:13.223Z,18.42
2022-09-30T17:23:39.703Z,20.90
2022-09-30T17:26:06.657Z,22.85
2022-09-30T17:28:34.667Z,21.40
2022-09-30T17:31:02.126Z,20.75
2022-09-30T17:33:33.386Z,22.35
2022-09-30T17:36:02.280Z,21.95
2022-09-30T17:38:29.443Z,19.95
2022-09-30T17:41:14.649Z,21.15
2022-09-30T17:43:41.273Z,19.63
2022-09-30T17:46:08.591Z,21.85
2022-09-30T17:48:35.492Z,20.63
2022-09-30T17:51:01.964Z,20.92
2022-09-30T17:53:30.778Z,21.98
2022-09-30T17:56:02.439Z,27.25
2022-09-30T17:58:29.277Z,20.75
2022-09-30T18:00:59.422Z,25.70
2022-09-30T18:03:28.129Z,24.05
2022-09-30T18:05:58.731Z,29.15
2022-09-30T18:08:28.349Z,25.45
2022-09-30T18:10:57.311Z,26.50
2022-09-30T18:13:24.837Z,24.77
2022-09-30T18:15:51.441Z,29.95
2022-09-30T18:18:17.954Z,47.55
2022-09-30T18:20:45.985Z,34.58
2022-09-30T18:23:12.686Z,33.80
2022-09-30T18:25:41.202Z,34.38
2022-09-30T18:28:08.817Z,37.85
2022-09-30T18:30:36.641Z,36.15
2022-09-30T18:33:07.383Z,46.67
2022-09-30T18:35:38.922Z,40.78
2022-09-30T18:38:06.776Z,32.40
2022-09-30T18:40:33.671Z,29.15
2022-09-30T18:43:02.683Z,27.63
2022-09-30T18:45:31.455Z,31.83
2022-09-30T18:48:00.187Z,27.63
2022-09-30T18:50:28.787Z,33.40
2022-09-30T18:52:56.303Z,28.73
2022-09-30T18:55:23.099Z,31.45
2022-09-30T18:57:53.117Z,29.83
2022-09-30T19:00:20.558Z,30.85
2022-09-30T19:02:47.194Z,32.47
2022-09-30T19:05:16.678Z,34.10
2022-09-30T19:07:43.725Z,36.80
2022-09-30T19:10:12.605Z,34.58
2022-09-30T19:12:40.431Z,32.80
2022-09-30T19:15:09.453Z,31.80
2022-09-30T19:17:37.322Z,37.00
2022-09-30T19:20:05.993Z,36.45
2022-09-30T19:22:37.155Z,34.65
2022-09-30T19:25:12.910Z,40.25
2022-09-30T19:27:41.341Z,44.72
2022-09-30T19:30:12.764Z,54.85
2022-09-30T19:32:39.922Z,51.90
2022-09-30T19:35:17.063Z,52.22
2022-09-30T19:37:56.364Z,47.63
2022-09-30T19:40:26.626Z,48.67
2022-09-30T19:42:53.153Z,47.42
2022-09-30T19:45:25.669Z,47.88
2022-09-30T19:47:53.083Z,48.92
2022-09-30T19:50:19.677Z,41.08
2022-09-30T19:52:55.676Z,40.92
2022-09-30T19:55:23.889Z,38.30
2022-09-30T19:57:50.346Z,39.42
2022-09-30T20:00:17.239Z,42.72
2022-09-30T20:02:43.707Z,35.42
2022-09-30T20:05:12.611Z,37.63
2022-09-30T20:07:39.597Z,40.90
2022-09-30T20:10:06.474Z,38.40
2022-09-30T20:12:32.933Z,40.40
2022-09-30T20:15:18.209Z,41.47
2022-09-30T20:17:44.713Z,38.35
2022-09-30T20:20:30.112Z,38.13
2022-09-30T20:22:59.925Z,37.03
2022-09-30T20:25:26.443Z,38.42
2022-09-30T20:27:52.922Z,38.58
2022-09-30T20:30:20.315Z,44.38
2022-09-30T20:32:46.794Z,45.42
2022-09-30T20:35:13.955Z,43.40
2022-09-30T20:37:41.918Z,34.85
2022-09-30T20:40:11.739Z,38.33
2022-09-30T20:42:39.958Z,45.20
2022-09-30T20:45:10.283Z,46.40
2022-09-30T20:47:42.248Z,41.83
2022-09-30T20:50:10.508Z,42.63
2022-09-30T20:52:37.054Z,43.22
2022-09-30T20:55:03.823Z,37.58
2022-09-30T20:57:30.418Z,44.30
2022-09-30T20:59:59.145Z,44.72
2022-09-30T21:02:27.594Z,38.33
2022-09-30T21:04:59.786Z,39.72
2022-09-30T21:07:26.754Z,38.28
2022-09-30T21:09:55.308Z,39.75
2022-09-30T21:12:21.864Z,37.47
2022-09-30T21:14:48.423Z,37.83
2022-09-30T21:17:15.087Z,37.70
2022-09-30T21:19:41.585Z,38.70
2022-09-30T21:22:08.191Z,33.53
2022-09-30T21:24:34.739Z,34.63
2022-09-30T21:27:01.786Z,33.15
2022-09-30T21:29:30.583Z,42.00
2022-09-30T21:31:57.320Z,33.85
2022-09-30T21:34:23.961Z,39.10
2022-09-30T21:36:50.457Z,31.13
2022-09-30T21:39:16.985Z,34.17
2022-09-30T21:41:44.724Z,34.17
2022-09-30T21:44:11.281Z,35.42
2022-09-30T21:46:37.761Z,34.75
2022-09-30T21:49:18.575Z,29.05
2022-09-30T21:51:45.478Z,33.45
2022-09-30T21:54:13.864Z,33.20
2022-09-30T21:56:42.691Z,33.75
2022-09-30T21:59:10.122Z,30.58
2022-09-30T22:01:37.469Z,28.92
2022-09-30T22:04:05.009Z,28.27
2022-09-30T22:06:32.126Z,30.38
2022-09-30T22:09:01.522Z,34.00
2022-09-30T22:11:29.566Z,27.92
2022-09-30T22:13:57.990Z,25.60
2022-09-30T22:16:27.169Z,27.10
2022-09-30T22:18:55.448Z,25.75
2022-09-30T22:21:22.242Z,25.23
2022-09-30T22:23:49.552Z,28.17
2022-09-30T22:26:18.479Z,30.45
2022-09-30T22:28:46.472Z,26.50
2022-09-30T22:31:17.558Z,28.50
2022-09-30T22:34:03.082Z,31.00
2022-09-30T22:36:48.127Z,35.28
2022-09-30T22:39:14.646Z,32.83
2022-09-30T22:41:41.313Z,29.83
2022-09-30T22:44:08.739Z,28.02
2022-09-30T22:46:36.694Z,29.17
2022-09-30T22:49:04.490Z,28.13
2022-09-30T22:51:32.811Z,26.95
2022-09-30T22:54:01.209Z,28.50
2022-09-30T22:56:27.851Z,25.73
2022-09-30T22:58:54.410Z,27.63
2022-09-30T23:01:21.638Z,30.50
2022-09-30T23:03:53.691Z,33.42
2022-09-30T23:06:21.028Z,24.80
2022-09-30T23:08:47.635Z,27.95
2022-09-30T23:11:16.802Z,28.65
2022-09-30T23:13:46.175Z,24.95
2022-09-30T23:16:13.866Z,29.25
2022-09-30T23:18:40.444Z,28.77
2022-09-30T23:21:13.636Z,33.25
2022-09-30T23:23:40.781Z,25.75
2022-09-30T23:26:12.519Z,27.20
2022-09-30T23:28:39.379Z,31.63
2022-09-30T23:31:11.065Z,24.75
2022-09-30T23:33:39.699Z,25.75
2022-09-30T23:36:07.081Z,25.63
2022-09-30T23:38:33.973Z,28.05
2022-09-30T23:41:00.488Z,22.90
2022-09-30T23:43:30.125Z,26.67
2022-09-30T23:46:06.194Z,23.45
2022-09-30T23:48:34.504Z,24.30
2022-09-30T23:51:01.512Z,23.08
2022-09-30T23:53:28.027Z,23.10
2022-09-30T23:55:55.010Z,23.75
2022-09-30T23:58:22.385Z,24.23
